sensor_id;sensor_type;location;lat;lon;timestamp;temperature;humidity
48728;DHT22;34527;45.618;5.130;2024-03-23T00:56:08;13.60;99.90
48728;DHT22;34527;45.618;5.130;2024-03-23T00:58:33;13.60;99.90
48728;DHT22;34527;45.618;5.130;2024-03-23T01:00:59;13.60;99.90
48728;DHT22;34527;45.618;5.130;2024-03-23T01:03:24;13.50;99.90
48728;DHT22;34527;45.618;5.130;2024-03-23T01:05:50;13.60;99.90
48728;DHT22;34527;45.618;5.130;2024-03-23T01:08:16;13.50;99.90
48728;DHT22;34527;45.618;5.130;2024-03-23T01:10:41;13.50;99.90
48728;DHT22;34527;45.618;5.130;2024-03-23T01:13:07;13.50;99.90
48728;DHT22;34527;45.618;5.130;2024-03-23T01:15:32;13.50;99.90
48728;DHT22;34527;45.618;5.130;2024-03-23T01:17:58;13.60;99.90
48728;DHT22;34527;45.618;5.130;2024-03-23T01:20:24;13.60;99.90
48728;DHT22;34527;45.618;5.130;2024-03-23T01:22:49;13.60;99.90
48728;DHT22;34527;45.618;5.130;2024-03-23T01:25:15;13.70;99.90
48728;DHT22;34527;45.618;5.130;2024-03-23T01:27:40;13.70;99.90
48728;DHT22;34527;45.618;5.130;2024-03-23T01:30:06;13.70;99.90
48728;DHT22;34527;45.618;5.130;2024-03-23T01:32:33;13.70;99.90
48728;DHT22;34527;45.618;5.130;2024-03-23T01:34:58;13.70;99.90
48728;DHT22;34527;45.618;5.130;2024-03-23T01:37:24;13.80;99.90
48728;DHT22;34527;45.618;5.130;2024-03-23T01:39:49;13.80;99.90
48728;DHT22;34527;45.618;5.130;2024-03-23T01:42:15;13.80;99.90
48728;DHT22;34527;45.618;5.130;2024-03-23T01:44:40;13.80;99.90
48728;DHT22;34527;45.618;5.130;2024-03-23T01:47:06;13.90;99.90
48728;DHT22;34527;45.618;5.130;2024-03-23T01:49:33;13.90;99.90
48728;DHT22;34527;45.618;5.130;2024-03-23T01:51:59;13.90;99.90
48728;DHT22;34527;45.618;5.130;2024-03-23T01:54:25;13.90;99.90
48728;DHT22;34527;45.618;5.130;2024-03-23T01:56:51;13.90;99.90
48728;DHT22;34527;45.618;5.130;2024-03-23T01:59:16;13.90;99.90
48728;DHT22;34527;45.618;5.130;2024-03-23T02:01:42;14.00;99.90
48728;DHT22;34527;45.618;5.130;2024-03-23T02:04:08;13.90;99.90
48728;DHT22;34527;45.618;5.130;2024-03-23T02:06:35;13.90;99.90
48728;DHT22;34527;45.618;5.130;2024-03-23T02:09:00;13.90;99.90
48728;DHT22;34527;45.618;5.130;2024-03-23T02:11:26;13.90;99.90
48728;DHT22;34527;45.618;5.130;2024-03-23T02:13:52;13.90;99.90
48728;DHT22;34527;45.618;5.130;2024-03-23T02:16:17;13.90;99.90
48728;DHT22;34527;45.618;5.130;2024-03-23T02:18:43;13.90;99.90
48728;DHT22;34527;45.618;5.130;2024-03-23T02:21:08;13.90;99.90
48728;DHT22;34527;45.618;5.130;2024-03-23T02:23:34;13.90;99.90
48728;DHT22;34527;45.618;5.130;2024-03-23T02:26:00;13.90;99.90
48728;DHT22;34527;45.618;5.130;2024-03-23T02:28:25;13.90;99.90
48728;DHT22;34527;45.618;5.130;2024-03-23T02:30:52;13.90;99.90
48728;DHT22;34527;45.618;5.130;2024-03-23T02:33:17;13.80;99.90
48728;DHT22;34527;45.618;5.130;2024-03-23T02:35:47;13.80;99.90
48728;DHT22;34527;45.618;5.130;2024-03-23T02:38:12;13.80;99.90
48728;DHT22;34527;45.618;5.130;2024-03-23T02:40:38;13.70;99.90
48728;DHT22;34527;45.618;5.130;2024-03-23T02:43:04;13.70;99.90
48728;DHT22;34527;45.618;5.130;2024-03-23T02:45:29;13.70;99.90
48728;DHT22;34527;45.618;5.130;2024-03-23T02:47:55;13.70;99.90
48728;DHT22;34527;45.618;5.130;2024-03-23T02:50:21;13.70;99.90
48728;DHT22;34527;45.618;5.130;2024-03-23T02:52:47;13.70;99.90
48728;DHT22;34527;45.618;5.130;2024-03-23T02:55:13;13.70;99.90
48728;DHT22;34527;45.618;5.130;2024-03-23T02:57:38;13.70;99.90
48728;DHT22;34527;45.618;5.130;2024-03-23T03:00:05;13.70;99.90
48728;DHT22;34527;45.618;5.130;2024-03-23T03:02:32;13.70;99.90
48728;DHT22;34527;45.618;5.130;2024-03-23T03:04:57;13.70;99.90
48728;DHT22;34527;45.618;5.130;2024-03-23T03:07:23;13.70;99.90
48728;DHT22;34527;45.618;5.130;2024-03-23T03:09:48;13.70;99.90
48728;DHT22;34527;45.618;5.130;2024-03-23T03:12:14;13.80;99.90
48728;DHT22;34527;45.618;5.130;2024-03-23T03:14:40;13.80;99.90
48728;DHT22;34527;45.618;5.130;2024-03-23T03:17:05;13.90;99.90
48728;DHT22;34527;45.618;5.130;2024-03-23T03:19:32;13.90;99.90
48728;DHT22;34527;45.618;5.130;2024-03-23T03:21:57;13.90;99.90
48728;DHT22;34527;45.618;5.130;2024-03-23T03:24:23;13.90;99.90
48728;DHT22;34527;45.618;5.130;2024-03-23T03:26:49;13.90;99.90
48728;DHT22;34527;45.618;5.130;2024-03-23T03:29:15;13.90;99.90
48728;DHT22;34527;45.618;5.130;2024-03-23T03:31:41;13.90;99.90
48728;DHT22;34527;45.618;5.130;2024-03-23T03:34:06;13.90;99.90
48728;DHT22;34527;45.618;5.130;2024-03-23T03:36:32;13.90;99.90
48728;DHT22;34527;45.618;5.130;2024-03-23T03:38:57;13.90;99.90
48728;DHT22;34527;45.618;5.130;2024-03-23T03:41:23;13.90;99.90
48728;DHT22;34527;45.618;5.130;2024-03-23T03:43:49;13.90;99.90
48728;DHT22;34527;45.618;5.130;2024-03-23T03:46:14;13.90;99.90
48728;DHT22;34527;45.618;5.130;2024-03-23T03:48:40;13.90;99.90
48728;DHT22;34527;45.618;5.130;2024-03-23T03:51:05;13.90;99.90
48728;DHT22;34527;45.618;5.130;2024-03-23T03:53:31;13.80;99.90
48728;DHT22;34527;45.618;5.130;2024-03-23T03:56:00;13.70;99.90
48728;DHT22;34527;45.618;5.130;2024-03-23T03:58:26;13.60;99.90
48728;DHT22;34527;45.618;5.130;2024-03-23T04:00:51;13.60;99.90
48728;DHT22;34527;45.618;5.130;2024-03-23T04:03:17;13.60;99.90
48728;DHT22;34527;45.618;5.130;2024-03-23T04:05:42;13.50;99.90
48728;DHT22;34527;45.618;5.130;2024-03-23T04:08:08;13.50;99.90
48728;DHT22;34527;45.618;5.130;2024-03-23T04:10:34;13.40;99.90
48728;DHT22;34527;45.618;5.130;2024-03-23T04:13:00;13.40;99.90
48728;DHT22;34527;45.618;5.130;2024-03-23T04:15:26;13.30;99.90
48728;DHT22;34527;45.618;5.130;2024-03-23T04:17:51;13.20;99.90
48728;DHT22;34527;45.618;5.130;2024-03-23T04:20:17;13.10;99.90
48728;DHT22;34527;45.618;5.130;2024-03-23T04:22:43;13.10;99.90
48728;DHT22;34527;45.618;5.130;2024-03-23T04:25:09;13.10;99.90
48728;DHT22;34527;45.618;5.130;2024-03-23T04:27:39;13.00;99.90
48728;DHT22;34527;45.618;5.130;2024-03-23T04:30:05;12.90;99.90
48728;DHT22;34527;45.618;5.130;2024-03-23T04:32:39;12.80;99.90
48728;DHT22;34527;45.618;5.130;2024-03-23T04:35:04;12.70;99.90
48728;DHT22;34527;45.618;5.130;2024-03-23T04:37:37;12.70;99.90
48728;DHT22;34527;45.618;5.130;2024-03-23T04:40:04;12.60;99.90
48728;DHT22;34527;45.618;5.130;2024-03-23T04:42:30;12.60;99.90
48728;DHT22;34527;45.618;5.130;2024-03-23T04:44:56;12.60;99.90
48728;DHT22;34527;45.618;5.130;2024-03-23T04:47:22;12.50;99.90
48728;DHT22;34527;45.618;5.130;2024-03-23T04:49:48;12.40;99.90
48728;DHT22;34527;45.618;5.130;2024-03-23T04:52:14;12.30;99.90
48728;DHT22;34527;45.618;5.130;2024-03-23T04:54:39;12.20;99.90
48728;DHT22;34527;45.618;5.130;2024-03-23T04:57:06;12.20;99.90
48728;DHT22;34527;45.618;5.130;2024-03-23T04:59:31;12.10;99.90
48728;DHT22;34527;45.618;5.130;2024-03-23T05:01:57;12.00;99.90
48728;DHT22;34527;45.618;5.130;2024-03-23T05:04:23;12.00;99.90
48728;DHT22;34527;45.618;5.130;2024-03-23T05:06:48;12.00;99.90
48728;DHT22;34527;45.618;5.130;2024-03-23T05:09:14;12.00;99.90
48728;DHT22;34527;45.618;5.130;2024-03-23T05:11:40;12.10;99.90
48728;DHT22;34527;45.618;5.130;2024-03-23T05:14:07;12.10;99.90
48728;DHT22;34527;45.618;5.130;2024-03-23T05:16:33;12.10;99.90
48728;DHT22;34527;45.618;5.130;2024-03-23T05:18:58;12.10;99.90
48728;DHT22;34527;45.618;5.130;2024-03-23T05:21:24;12.10;99.90
48728;DHT22;34527;45.618;5.130;2024-03-23T05:23:50;12.10;99.90
48728;DHT22;34527;45.618;5.130;2024-03-23T05:26:17;12.20;99.90
48728;DHT22;34527;45.618;5.130;2024-03-23T05:28:42;12.20;99.90
48728;DHT22;34527;45.618;5.130;2024-03-23T05:31:09;12.20;99.90
48728;DHT22;34527;45.618;5.130;2024-03-23T05:33:36;12.30;99.90
48728;DHT22;34527;45.618;5.130;2024-03-23T05:36:04;12.40;99.90
48728;DHT22;34527;45.618;5.130;2024-03-23T05:38:29;12.50;99.90
48728;DHT22;34527;45.618;5.130;2024-03-23T05:40:56;12.40;99.90
48728;DHT22;34527;45.618;5.130;2024-03-23T05:43:23;12.50;99.90
48728;DHT22;34527;45.618;5.130;2024-03-23T05:45:59;12.50;99.90
48728;DHT22;34527;45.618;5.130;2024-03-23T05:48:28;12.50;99.90
48728;DHT22;34527;45.618;5.130;2024-03-23T05:50:56;12.60;99.90
48728;DHT22;34527;45.618;5.130;2024-03-23T05:53:23;12.60;99.90
48728;DHT22;34527;45.618;5.130;2024-03-23T05:55:49;12.60;99.90
48728;DHT22;34527;45.618;5.130;2024-03-23T05:58:16;12.60;99.90
48728;DHT22;34527;45.618;5.130;2024-03-23T06:00:42;12.60;99.90
48728;DHT22;34527;45.618;5.130;2024-03-23T06:03:08;12.70;99.90
48728;DHT22;34527;45.618;5.130;2024-03-23T06:05:34;12.70;99.90
48728;DHT22;34527;45.618;5.130;2024-03-23T06:08:00;12.70;99.90
48728;DHT22;34527;45.618;5.130;2024-03-23T06:10:25;12.70;99.90
48728;DHT22;34527;45.618;5.130;2024-03-23T06:12:51;12.70;99.90
48728;DHT22;34527;45.618;5.130;2024-03-23T06:15:18;12.60;99.90
48728;DHT22;34527;45.618;5.130;2024-03-23T06:17:44;12.60;99.90
48728;DHT22;34527;45.618;5.130;2024-03-23T06:20:10;12.60;99.90
48728;DHT22;34527;45.618;5.130;2024-03-23T06:22:36;12.60;99.90
48728;DHT22;34527;45.618;5.130;2024-03-23T06:25:02;12.60;99.90
48728;DHT22;34527;45.618;5.130;2024-03-23T06:27:28;12.60;99.90
48728;DHT22;34527;45.618;5.130;2024-03-23T06:29:53;12.60;99.90
48728;DHT22;34527;45.618;5.130;2024-03-23T06:32:20;12.60;99.90
48728;DHT22;34527;45.618;5.130;2024-03-23T06:34:45;12.60;99.90
48728;DHT22;34527;45.618;5.130;2024-03-23T06:37:11;12.60;99.90
48728;DHT22;34527;45.618;5.130;2024-03-23T06:39:37;12.60;99.90
48728;DHT22;34527;45.618;5.130;2024-03-23T06:42:03;12.60;99.90
48728;DHT22;34527;45.618;5.130;2024-03-23T06:44:29;12.50;99.90
48728;DHT22;34527;45.618;5.130;2024-03-23T06:46:55;12.50;99.90
48728;DHT22;34527;45.618;5.130;2024-03-23T06:49:22;12.40;99.90
48728;DHT22;34527;45.618;5.130;2024-03-23T06:51:47;12.30;99.90
48728;DHT22;34527;45.618;5.130;2024-03-23T06:54:13;12.10;99.90
48728;DHT22;34527;45.618;5.130;2024-03-23T06:56:39;12.00;99.90
48728;DHT22;34527;45.618;5.130;2024-03-23T06:59:04;11.80;99.90
48728;DHT22;34527;45.618;5.130;2024-03-23T07:01:30;11.70;99.90
48728;DHT22;34527;45.618;5.130;2024-03-23T07:03:56;11.60;99.90
48728;DHT22;34527;45.618;5.130;2024-03-23T07:06:21;11.60;99.90
48728;DHT22;34527;45.618;5.130;2024-03-23T07:08:47;11.50;99.90
48728;DHT22;34527;45.618;5.130;2024-03-23T07:11:21;11.50;99.90
48728;DHT22;34527;45.618;5.130;2024-03-23T07:13:49;11.40;99.90
48728;DHT22;34527;45.618;5.130;2024-03-23T07:16:14;11.30;99.90
48728;DHT22;34527;45.618;5.130;2024-03-23T07:18:40;11.30;99.90
48728;DHT22;34527;45.618;5.130;2024-03-23T07:21:05;11.30;99.90
48728;DHT22;34527;45.618;5.130;2024-03-23T07:23:32;11.20;99.90
48728;DHT22;34527;45.618;5.130;2024-03-23T07:28:24;11.00;99.90
48728;DHT22;34527;45.618;5.130;2024-03-23T07:33:26;10.80;99.90
48728;DHT22;34527;45.618;5.130;2024-03-23T07:35:51;10.70;99.90
48728;DHT22;34527;45.618;5.130;2024-03-23T07:38:17;10.60;99.90
48728;DHT22;34527;45.618;5.130;2024-03-23T07:40:42;10.60;99.90
48728;DHT22;34527;45.618;5.130;2024-03-23T07:43:08;10.60;99.90
48728;DHT22;34527;45.618;5.130;2024-03-23T07:45:34;10.60;99.90
48728;DHT22;34527;45.618;5.130;2024-03-23T07:47:59;10.60;99.90
48728;DHT22;34527;45.618;5.130;2024-03-23T07:50:25;10.60;99.90
48728;DHT22;34527;45.618;5.130;2024-03-23T07:52:50;10.50;99.90
48728;DHT22;34527;45.618;5.130;2024-03-23T07:55:16;10.30;99.90
48728;DHT22;34527;45.618;5.130;2024-03-23T07:57:42;10.30;99.90
48728;DHT22;34527;45.618;5.130;2024-03-23T08:00:07;10.30;99.90
48728;DHT22;34527;45.618;5.130;2024-03-23T08:02:33;10.10;99.90
48728;DHT22;34527;45.618;5.130;2024-03-23T08:04:59;9.90;99.90
48728;DHT22;34527;45.618;5.130;2024-03-23T08:07:25;9.90;99.90
48728;DHT22;34527;45.618;5.130;2024-03-23T08:09:51;9.80;99.90
48728;DHT22;34527;45.618;5.130;2024-03-23T08:12:16;9.80;99.90
48728;DHT22;34527;45.618;5.130;2024-03-23T08:14:42;9.70;99.90
48728;DHT22;34527;45.618;5.130;2024-03-23T08:17:08;9.70;99.90
48728;DHT22;34527;45.618;5.130;2024-03-23T08:19:33;9.70;99.90
48728;DHT22;34527;45.618;5.130;2024-03-23T08:21:59;9.80;99.90
48728;DHT22;34527;45.618;5.130;2024-03-23T08:24:24;9.80;99.90
48728;DHT22;34527;45.618;5.130;2024-03-23T08:26:50;9.90;99.90
48728;DHT22;34527;45.618;5.130;2024-03-23T08:29:16;9.90;99.90
48728;DHT22;34527;45.618;5.130;2024-03-23T08:31:41;9.80;99.90
48728;DHT22;34527;45.618;5.130;2024-03-23T08:34:07;9.70;99.90
48728;DHT22;34527;45.618;5.130;2024-03-23T08:36:32;9.60;99.90
48728;DHT22;34527;45.618;5.130;2024-03-23T08:38:58;9.80;99.90
48728;DHT22;34527;45.618;5.130;2024-03-23T08:41:23;9.90;99.90
48728;DHT22;34527;45.618;5.130;2024-03-23T08:43:49;10.00;99.90
48728;DHT22;34527;45.618;5.130;2024-03-23T08:46:15;10.00;99.90
48728;DHT22;34527;45.618;5.130;2024-03-23T08:48:43;10.00;99.90
48728;DHT22;34527;45.618;5.130;2024-03-23T08:51:10;10.00;99.90
48728;DHT22;34527;45.618;5.130;2024-03-23T08:53:36;10.00;99.90
48728;DHT22;34527;45.618;5.130;2024-03-23T08:56:03;10.00;99.90
48728;DHT22;34527;45.618;5.130;2024-03-23T08:58:30;9.90;99.90
48728;DHT22;34527;45.618;5.130;2024-03-23T09:00:56;10.00;99.90
48728;DHT22;34527;45.618;5.130;2024-03-23T09:03:25;10.00;99.90
48728;DHT22;34527;45.618;5.130;2024-03-23T09:05:52;9.90;99.90
48728;DHT22;34527;45.618;5.130;2024-03-23T09:08:18;10.00;99.90
48728;DHT22;34527;45.618;5.130;2024-03-23T09:10:44;10.00;99.90
48728;DHT22;34527;45.618;5.130;2024-03-23T09:13:10;9.80;99.90
48728;DHT22;34527;45.618;5.130;2024-03-23T09:15:37;9.90;99.90
48728;DHT22;34527;45.618;5.130;2024-03-23T09:18:03;10.10;99.90
48728;DHT22;34527;45.618;5.130;2024-03-23T09:20:32;10.20;99.90
48728;DHT22;34527;45.618;5.130;2024-03-23T09:22:58;10.40;99.90
48728;DHT22;34527;45.618;5.130;2024-03-23T09:25:24;10.30;99.90
48728;DHT22;34527;45.618;5.130;2024-03-23T09:27:50;10.40;99.90
48728;DHT22;34527;45.618;5.130;2024-03-23T09:30:16;10.50;99.90
48728;DHT22;34527;45.618;5.130;2024-03-23T09:32:43;10.60;99.90
48728;DHT22;34527;45.618;5.130;2024-03-23T09:35:09;10.70;99.90
48728;DHT22;34527;45.618;5.130;2024-03-23T09:37:35;10.70;99.90
48728;DHT22;34527;45.618;5.130;2024-03-23T09:40:01;10.70;99.90
48728;DHT22;34527;45.618;5.130;2024-03-23T09:42:27;10.80;99.90
48728;DHT22;34527;45.618;5.130;2024-03-23T09:44:53;10.80;99.90
48728;DHT22;34527;45.618;5.130;2024-03-23T09:47:19;10.90;99.90
48728;DHT22;34527;45.618;5.130;2024-03-23T09:49:45;10.80;99.90
48728;DHT22;34527;45.618;5.130;2024-03-23T09:52:10;10.70;99.90
48728;DHT22;34527;45.618;5.130;2024-03-23T09:54:36;10.70;99.90
48728;DHT22;34527;45.618;5.130;2024-03-23T09:57:02;10.70;99.90
48728;DHT22;34527;45.618;5.130;2024-03-23T09:59:29;10.90;99.90
48728;DHT22;34527;45.618;5.130;2024-03-23T10:01:55;11.00;99.90
48728;DHT22;34527;45.618;5.130;2024-03-23T10:04:40;11.10;99.90
48728;DHT22;34527;45.618;5.130;2024-03-23T10:07:19;11.00;99.90
48728;DHT22;34527;45.618;5.130;2024-03-23T10:09:45;11.00;99.90
48728;DHT22;34527;45.618;5.130;2024-03-23T10:12:17;11.00;99.90
48728;DHT22;34527;45.618;5.130;2024-03-23T10:14:43;11.10;99.90
48728;DHT22;34527;45.618;5.130;2024-03-23T10:19:46;11.00;99.90
48728;DHT22;34527;45.618;5.130;2024-03-23T10:22:21;11.10;99.90
48728;DHT22;34527;45.618;5.130;2024-03-23T10:24:47;11.00;99.90
48728;DHT22;34527;45.618;5.130;2024-03-23T10:27:20;11.00;99.90
48728;DHT22;34527;45.618;5.130;2024-03-23T10:29:47;11.00;99.90
48728;DHT22;34527;45.618;5.130;2024-03-23T10:32:14;11.10;99.90
48728;DHT22;34527;45.618;5.130;2024-03-23T10:34:40;11.20;99.90
48728;DHT22;34527;45.618;5.130;2024-03-23T10:37:07;11.10;99.90
48728;DHT22;34527;45.618;5.130;2024-03-23T10:39:35;11.10;99.90
48728;DHT22;34527;45.618;5.130;2024-03-23T10:42:05;11.10;99.90
48728;DHT22;34527;45.618;5.130;2024-03-23T10:44:31;11.10;99.90
48728;DHT22;34527;45.618;5.130;2024-03-23T10:47:04;11.20;99.90
48728;DHT22;34527;45.618;5.130;2024-03-23T10:49:34;11.30;99.90
48728;DHT22;34527;45.618;5.130;2024-03-23T10:52:04;11.20;99.90
48728;DHT22;34527;45.618;5.130;2024-03-23T10:54:31;11.10;99.90
48728;DHT22;34527;45.618;5.130;2024-03-23T10:57:02;11.20;99.90
48728;DHT22;34527;45.618;5.130;2024-03-23T10:59:29;11.30;99.90
48728;DHT22;34527;45.618;5.130;2024-03-23T11:01:57;11.30;99.90
48728;DHT22;34527;45.618;5.130;2024-03-23T11:04:31;11.20;99.90
48728;DHT22;34527;45.618;5.130;2024-03-23T11:06:57;11.30;99.90
48728;DHT22;34527;45.618;5.130;2024-03-23T11:09:38;11.40;99.90
48728;DHT22;34527;45.618;5.130;2024-03-23T11:14:56;11.40;99.90
48728;DHT22;34527;45.618;5.130;2024-03-23T11:17:23;11.50;99.90
48728;DHT22;34527;45.618;5.130;2024-03-23T11:22:41;11.40;99.90
48728;DHT22;34527;45.618;5.130;2024-03-23T11:25:25;11.50;99.90
48728;DHT22;34527;45.618;5.130;2024-03-23T11:28:09;11.60;99.90
48728;DHT22;34527;45.618;5.130;2024-03-23T11:30:35;11.50;99.90
48728;DHT22;34527;45.618;5.130;2024-03-23T11:33:03;11.70;99.90
48728;DHT22;34527;45.618;5.130;2024-03-23T11:38:07;11.60;99.90
48728;DHT22;34527;45.618;5.130;2024-03-23T11:40:34;11.80;99.90
48728;DHT22;34527;45.618;5.130;2024-03-23T11:43:05;11.80;99.90
48728;DHT22;34527;45.618;5.130;2024-03-23T11:45:51;11.80;99.90
48728;DHT22;34527;45.618;5.130;2024-03-23T11:48:23;12.20;99.90
48728;DHT22;34527;45.618;5.130;2024-03-23T11:50:51;12.10;99.90
48728;DHT22;34527;45.618;5.130;2024-03-23T11:53:21;11.80;99.90
48728;DHT22;34527;45.618;5.130;2024-03-23T11:55:51;11.70;99.90
48728;DHT22;34527;45.618;5.130;2024-03-23T11:58:19;11.90;99.90
48728;DHT22;34527;45.618;5.130;2024-03-23T12:00:57;11.90;99.90
48728;DHT22;34527;45.618;5.130;2024-03-23T12:03:24;11.80;99.90
48728;DHT22;34527;45.618;5.130;2024-03-23T12:06:01;11.60;99.90
48728;DHT22;34527;45.618;5.130;2024-03-23T12:08:34;11.80;99.90
48728;DHT22;34527;45.618;5.130;2024-03-23T12:11:11;11.60;99.90
48728;DHT22;34527;45.618;5.130;2024-03-23T12:13:38;11.70;99.90
48728;DHT22;34527;45.618;5.130;2024-03-23T12:18:40;11.90;99.90
48728;DHT22;34527;45.618;5.130;2024-03-23T12:21:06;11.90;99.90
48728;DHT22;34527;45.618;5.130;2024-03-23T12:23:32;11.90;99.90
48728;DHT22;34527;45.618;5.130;2024-03-23T12:25:58;12.10;99.90
48728;DHT22;34527;45.618;5.130;2024-03-23T12:28:24;12.20;99.90
48728;DHT22;34527;45.618;5.130;2024-03-23T12:30:51;12.50;99.90
48728;DHT22;34527;45.618;5.130;2024-03-23T12:33:17;12.60;99.90
48728;DHT22;34527;45.618;5.130;2024-03-23T12:35:43;12.70;99.90
48728;DHT22;34527;45.618;5.130;2024-03-23T12:38:08;12.50;99.90
48728;DHT22;34527;45.618;5.130;2024-03-23T12:40:34;12.70;99.90
48728;DHT22;34527;45.618;5.130;2024-03-23T12:43:00;12.70;99.90
48728;DHT22;34527;45.618;5.130;2024-03-23T12:45:25;12.70;99.90
48728;DHT22;34527;45.618;5.130;2024-03-23T12:47:52;12.90;99.90
48728;DHT22;34527;45.618;5.130;2024-03-23T12:50:20;12.70;99.90
48728;DHT22;34527;45.618;5.130;2024-03-23T12:52:46;12.70;99.90
48728;DHT22;34527;45.618;5.130;2024-03-23T12:55:12;12.50;99.90
48728;DHT22;34527;45.618;5.130;2024-03-23T12:57:37;12.40;99.90
48728;DHT22;34527;45.618;5.130;2024-03-23T13:00:04;12.30;99.90
48728;DHT22;34527;45.618;5.130;2024-03-23T13:02:30;12.50;99.90
48728;DHT22;34527;45.618;5.130;2024-03-23T13:04:55;12.50;99.90
48728;DHT22;34527;45.618;5.130;2024-03-23T13:07:22;12.60;99.90
48728;DHT22;34527;45.618;5.130;2024-03-23T13:09:51;12.50;99.90
48728;DHT22;34527;45.618;5.130;2024-03-23T13:12:18;12.70;99.90
48728;DHT22;34527;45.618;5.130;2024-03-23T13:14:47;12.70;99.90
48728;DHT22;34527;45.618;5.130;2024-03-23T13:17:12;12.70;99.90
48728;DHT22;34527;45.618;5.130;2024-03-23T13:19:38;12.30;99.90
48728;DHT22;34527;45.618;5.130;2024-03-23T13:22:05;12.10;99.90
48728;DHT22;34527;45.618;5.130;2024-03-23T13:24:30;12.20;99.90
48728;DHT22;34527;45.618;5.130;2024-03-23T13:26:57;12.20;99.90
48728;DHT22;34527;45.618;5.130;2024-03-23T13:29:24;12.20;99.90
48728;DHT22;34527;45.618;5.130;2024-03-23T13:31:50;12.20;99.90
48728;DHT22;34527;45.618;5.130;2024-03-23T13:34:17;12.10;99.90
48728;DHT22;34527;45.618;5.130;2024-03-23T13:36:46;12.00;99.90
48728;DHT22;34527;45.618;5.130;2024-03-23T13:39:13;12.10;99.90
48728;DHT22;34527;45.618;5.130;2024-03-23T13:41:48;12.10;99.90
48728;DHT22;34527;45.618;5.130;2024-03-23T13:44:13;12.10;99.90
48728;DHT22;34527;45.618;5.130;2024-03-23T13:46:40;12.20;99.90
48728;DHT22;34527;45.618;5.130;2024-03-23T13:49:28;12.20;99.90
48728;DHT22;34527;45.618;5.130;2024-03-23T13:51:55;12.40;99.90
48728;DHT22;34527;45.618;5.130;2024-03-23T13:54:21;12.40;99.90
48728;DHT22;34527;45.618;5.130;2024-03-23T13:56:51;12.40;99.90
48728;DHT22;34527;45.618;5.130;2024-03-23T13:59:17;12.20;99.90
48728;DHT22;34527;45.618;5.130;2024-03-23T14:01:43;12.00;99.90
48728;DHT22;34527;45.618;5.130;2024-03-23T14:04:10;12.20;99.90
48728;DHT22;34527;45.618;5.130;2024-03-23T14:06:36;12.30;99.90
48728;DHT22;34527;45.618;5.130;2024-03-23T14:09:01;12.40;99.90
48728;DHT22;34527;45.618;5.130;2024-03-23T14:11:29;12.50;99.90
48728;DHT22;34527;45.618;5.130;2024-03-23T14:13:54;12.60;99.90
48728;DHT22;34527;45.618;5.130;2024-03-23T14:16:20;12.50;99.90
48728;DHT22;34527;45.618;5.130;2024-03-23T14:18:49;12.60;99.90
48728;DHT22;34527;45.618;5.130;2024-03-23T14:21:14;12.40;99.90
48728;DHT22;34527;45.618;5.130;2024-03-23T14:23:40;12.40;99.90
48728;DHT22;34527;45.618;5.130;2024-03-23T14:26:08;12.50;99.90
48728;DHT22;34527;45.618;5.130;2024-03-23T14:28:34;12.50;99.90
48728;DHT22;34527;45.618;5.130;2024-03-23T14:31:00;12.60;99.90
48728;DHT22;34527;45.618;5.130;2024-03-23T14:33:26;12.70;99.90
48728;DHT22;34527;45.618;5.130;2024-03-23T14:35:53;12.70;99.90
48728;DHT22;34527;45.618;5.130;2024-03-23T14:38:19;12.70;99.90
48728;DHT22;34527;45.618;5.130;2024-03-23T14:40:45;12.60;99.90
48728;DHT22;34527;45.618;5.130;2024-03-23T14:43:11;12.50;99.90
48728;DHT22;34527;45.618;5.130;2024-03-23T14:45:37;12.40;99.90
48728;DHT22;34527;45.618;5.130;2024-03-23T14:48:02;12.30;99.90
48728;DHT22;34527;45.618;5.130;2024-03-23T14:50:28;12.30;99.90
48728;DHT22;34527;45.618;5.130;2024-03-23T14:52:54;12.40;99.90
48728;DHT22;34527;45.618;5.130;2024-03-23T14:55:19;12.40;99.90
48728;DHT22;34527;45.618;5.130;2024-03-23T14:57:45;12.60;99.90
48728;DHT22;34527;45.618;5.130;2024-03-23T15:00:11;12.70;99.90
48728;DHT22;34527;45.618;5.130;2024-03-23T15:02:37;12.70;99.90
48728;DHT22;34527;45.618;5.130;2024-03-23T15:05:04;12.70;99.90
48728;DHT22;34527;45.618;5.130;2024-03-23T15:07:31;12.60;99.90
48728;DHT22;34527;45.618;5.130;2024-03-23T15:09:56;12.80;99.90
48728;DHT22;34527;45.618;5.130;2024-03-23T15:12:22;12.80;99.90
48728;DHT22;34527;45.618;5.130;2024-03-23T15:14:48;12.80;99.90
48728;DHT22;34527;45.618;5.130;2024-03-23T15:17:14;12.90;99.90
48728;DHT22;34527;45.618;5.130;2024-03-23T15:19:39;12.50;99.90
48728;DHT22;34527;45.618;5.130;2024-03-23T15:22:07;12.40;99.90
48728;DHT22;34527;45.618;5.130;2024-03-23T15:24:32;12.60;99.90
48728;DHT22;34527;45.618;5.130;2024-03-23T15:27:00;12.70;99.90
48728;DHT22;34527;45.618;5.130;2024-03-23T15:29:26;12.60;99.90
48728;DHT22;34527;45.618;5.130;2024-03-23T15:31:51;12.70;99.90
48728;DHT22;34527;45.618;5.130;2024-03-23T15:34:18;12.80;99.90
48728;DHT22;34527;45.618;5.130;2024-03-23T15:36:47;12.70;99.90
48728;DHT22;34527;45.618;5.130;2024-03-23T15:39:14;12.60;99.90
48728;DHT22;34527;45.618;5.130;2024-03-23T15:41:40;12.70;99.90
48728;DHT22;34527;45.618;5.130;2024-03-23T15:44:06;12.70;99.90
48728;DHT22;34527;45.618;5.130;2024-03-23T15:46:31;12.70;99.90
48728;DHT22;34527;45.618;5.130;2024-03-23T15:48:57;12.80;99.90
48728;DHT22;34527;45.618;5.130;2024-03-23T15:51:23;12.90;99.90
48728;DHT22;34527;45.618;5.130;2024-03-23T15:53:49;12.90;99.90
48728;DHT22;34527;45.618;5.130;2024-03-23T15:56:17;13.00;99.90
48728;DHT22;34527;45.618;5.130;2024-03-23T15:58:43;12.90;99.90
48728;DHT22;34527;45.618;5.130;2024-03-23T16:01:09;13.00;99.90
48728;DHT22;34527;45.618;5.130;2024-03-23T16:03:36;13.10;99.90
48728;DHT22;34527;45.618;5.130;2024-03-23T16:06:04;12.90;99.90
48728;DHT22;34527;45.618;5.130;2024-03-23T16:08:31;12.80;99.90
48728;DHT22;34527;45.618;5.130;2024-03-23T16:11:04;12.80;99.90
48728;DHT22;34527;45.618;5.130;2024-03-23T16:13:31;12.90;99.90
48728;DHT22;34527;45.618;5.130;2024-03-23T16:15:58;12.90;99.90
48728;DHT22;34527;45.618;5.130;2024-03-23T16:18:24;12.90;99.90
48728;DHT22;34527;45.618;5.130;2024-03-23T16:20:57;12.70;99.90
48728;DHT22;34527;45.618;5.130;2024-03-23T16:23:23;12.60;99.90
48728;DHT22;34527;45.618;5.130;2024-03-23T16:25:49;12.50;99.90
48728;DHT22;34527;45.618;5.130;2024-03-23T16:28:25;12.40;99.90
48728;DHT22;34527;45.618;5.130;2024-03-23T16:31:05;12.40;99.90
48728;DHT22;34527;45.618;5.130;2024-03-23T16:33:34;12.40;99.90
48728;DHT22;34527;45.618;5.130;2024-03-23T16:36:02;12.40;99.90
48728;DHT22;34527;45.618;5.130;2024-03-23T16:38:30;12.40;99.90
48728;DHT22;34527;45.618;5.130;2024-03-23T16:40:59;12.40;99.90
48728;DHT22;34527;45.618;5.130;2024-03-23T16:43:25;12.50;99.90